Sherman Airfield (FLV)
Ft Leavenworth, KS
Field Elevation: 772
Lat: 39°22.10N  Long: 94°54.89W
CTAF/Unicom Freq: 126.2000
   
    
Weather Advisories
4/21/2014 09:57 Z
Altimeter 29.98" Hg
Wind 160° @ 3 KT
Gusts --
Visibility 10 SM
Temperature 16° C (61° F)
Dewpoint 16° C (61° F)
Relative Humidity 95%
Density Altitude --
Condensation Altitude --
  Wind and Runways
Indicated Runway = 16
History
 
 
More Info
All DigiWx sites map
Weather Radar
NOAA Forecast
 
Airport IQ 5010
(K68) Garnett Municipal
(GRE) Greenville
 
about DigiWx
 
FAA Disclaimer: The data displayed is for advisory purposes only and is not to be used for flight planning or operations. For official data, please call (not available) to hear the current automated AWOS voice message.
  METAR FLV 210957Z AUTO 16003KT 10SM 16/16 A2998